LIPELIBD

Guest
Details From LIPE - BOLOGNA
To LIBD - Bari Palese Macchie
Flight Number -
Tags generated
Created
Modified
Stats Distance 318 nm / 589 km
Max Altitude 35,000 ft / 10,668 m
Waypoints 6
Social Downloads 9
Likes 0
Share VATSIM

Download

Looking for another format? Having issues loading an existing format? Contact us
Advertisement - Login to hide

Notes

Basic altitude profile: - Ascent Rate: 2500ft/min - Ascent Speed: 250kts - Cruise Altitude: 35000ft - Cruise Speed: 420kts - Descent Rate: 1500ft/min - Descent Speed: 250kts Options: - Use NATs: yes - Use PACOTS: yes - Use low airways: yes - Use high airways: yes

Route

LIPE LEONN UM872 PES M872 AME LIBD

ID Type Via Altitude Latitude Longitude Leg Dist Tot Dist Heading (true) Name
O LIPE APT - 0 ft / 0 m 44.53545˚ 11.28866˚ - 0 nm - BOLOGNA
LEONN FIX - 35,000 ft / 10,668 m 43.29500˚ 13.03667˚ 106 nm 106 nm 134° / 135° -
NORKI FIX UM872 (AWY-HI) 35,000 ft / 10,668 m 43.07972˚ 13.32861˚ 18 nm 124 nm 135° / 135° -
PES VOR UM872 (AWY-HI) 29,900 ft / 9,114 m 42.43611˚ 14.18444˚ 54 nm 178 nm 135° / 136° PESCARA VOR-DME
AME NDB M872 (AWY-LO) 9,500 ft / 2,896 m 41.50000˚ 15.83778˚ 92 nm 271 nm 127° / 128° AMENDOLA NDB
O LIBD APT - 0 ft / 0 m 41.13787˚ 16.75832˚ 46 nm 318 nm 117° / 118° Bari Palese Macchie

Altitude Profile

Advertisement - Login to hide

Weather


0- 5 10 15 20 25 30 35+ Temperature / ° C

Clouds and Precipitation
Forecast for 2017-12-13 00:00 UTC. Updated an hour ago

Ground ~20,000 ft ~40,000 ft Winds

LIPE

Details ICAO LIPE (BLQ)
Name BOLOGNA
Region Italy
Timezone Europe/Rome (UTC+1.0)
Stats Elevation 123 ft / 37 m (AMSL)
Location 44.535446° 11.288662°
Runways 1
Magnetic Variation 2.917° E

METAR

LIPE 122020Z VRB01KT 7000 FEW050 04/03 Q1013

Decode

TAF

TAF LIPE 121700Z 1218/1318 VRB05KT 7000 FEW050 BECMG 1220/1222 3000 BR TEMPO 1300/1308 0600 FG BECMG 1308/1310 5000 BECMG 1316/1318 3000

Decode

Departure Runways

ID Width Length Bearing (true) Bearing (mag) Surface Threshold Offset Overrun Length
12 148 ft / 45 m 9,185 ft / 2,800 m 116.78° 113.86° Asphalt 1,007 ft / 307 m 0 ft / 0 m
30 148 ft / 45 m 9,185 ft / 2,800 m 296.81° 293.89° Asphalt 1,188 ft / 362 m 200 ft / 61 m

LIBD

Details ICAO LIBD (BRI)
Name Bari Palese Macchie
Region Italy
Timezone Europe/Rome (UTC+1.0)
Stats Elevation 177 ft / 54 m (AMSL)
Location 41.137865° 16.758318°
Runways 1
Magnetic Variation 3.737° E

METAR

LIBD 122020Z 21006KT CAVOK 12/08 Q1018

Decode

TAF

TAF LIBD 121700Z 1218/1318 18008KT 9999 SCT030 TEMPO 1309/1316 RA= TAF LIBP 121700Z 1218/1318 VRB06KT 9999 SCT030 TEMPO 1300/1309 4000 RA TEMPO 1309/1315 SHRA

Decode

Destination Runways

ID Width Length Bearing (true) Bearing (mag) Surface Threshold Offset Overrun Length
07 148 ft / 45 m 9,262 ft / 2,823 m 69.39° 65.65° Asphalt 1,257 ft / 383 m 0 ft / 0 m
25 148 ft / 45 m 9,262 ft / 2,823 m 249.42° 245.68° Asphalt 0 ft / 0 m 194 ft / 59 m

Approach Navaids

Runway Type Ident Frequency Range Bearing (true) Bearing (mag) Slope Elevation
07 Localiser BAP 111.35 MHz 18 nm / 33 km 69.25° 65.51° - 177 ft / 54 m (AMSL)
07 Glidescope BAP 111.35 MHz 10 nm / 19 km 69.25° 65.51° 3.32° 177 ft / 54 m (AMSL)
07 DME BAP 111.35 MHz 18 nm / 33 km - - - 183 ft / 56 m (AMSL)

Popular Alternatives